sensor_id;sensor_type;location;lat;lon;timestamp;pressure;altitude;pressure_sealevel;temperature;humidity
81961;BME280;71462;50.650;6.888;2024-02-14T00:01:32;99827.91;;;6.41;61.96
81961;BME280;71462;50.650;6.888;2024-02-14T00:04:00;99818.84;;;6.10;63.59
81961;BME280;71462;50.650;6.888;2024-02-14T00:06:28;99816.28;;;5.93;64.82
81961;BME280;71462;50.650;6.888;2024-02-14T00:08:57;99819.09;;;6.35;62.80
81961;BME280;71462;50.650;6.888;2024-02-14T00:11:24;99811.25;;;5.91;64.80
81961;BME280;71462;50.650;6.888;2024-02-14T00:13:52;99805.84;;;5.81;65.52
81961;BME280;71462;50.650;6.888;2024-02-14T00:16:22;99793.50;;;5.70;65.79
81961;BME280;71462;50.650;6.888;2024-02-14T00:18:50;99790.59;;;5.72;65.75
81961;BME280;71462;50.650;6.888;2024-02-14T00:21:17;99784.91;;;5.36;67.36
81961;BME280;71462;50.650;6.888;2024-02-14T00:23:45;99781.84;;;5.44;67.65
81961;BME280;71462;50.650;6.888;2024-02-14T00:26:14;99786.81;;;5.41;67.72
81961;BME280;71462;50.650;6.888;2024-02-14T00:28:42;99778.47;;;5.76;66.56
81961;BME280;71462;50.650;6.888;2024-02-14T00:31:10;99783.38;;;5.40;67.88
81961;BME280;71462;50.650;6.888;2024-02-14T00:33:37;99780.44;;;6.49;64.14
81961;BME280;71462;50.650;6.888;2024-02-14T00:36:05;99771.50;;;5.21;69.57
81961;BME280;71462;50.650;6.888;2024-02-14T00:38:33;99770.59;;;5.37;69.57
81961;BME280;71462;50.650;6.888;2024-02-14T00:41:01;99764.56;;;5.42;69.29
81961;BME280;71462;50.650;6.888;2024-02-14T00:43:31;99768.59;;;5.44;68.74
81961;BME280;71462;50.650;6.888;2024-02-14T00:45:58;99767.59;;;4.85;71.75
81961;BME280;71462;50.650;6.888;2024-02-14T00:48:25;99768.16;;;4.70;71.97
81961;BME280;71462;50.650;6.888;2024-02-14T00:50:54;99767.69;;;5.12;70.86
81961;BME280;71462;50.650;6.888;2024-02-14T00:53:21;99766.88;;;5.60;68.64
81961;BME280;71462;50.650;6.888;2024-02-14T00:55:49;99785.75;;;5.42;70.16
81961;BME280;71462;50.650;6.888;2024-02-14T00:58:17;99765.50;;;5.30;70.90
81961;BME280;71462;50.650;6.888;2024-02-14T01:00:46;99773.53;;;5.14;70.42
81961;BME280;71462;50.650;6.888;2024-02-14T01:03:14;99768.75;;;5.38;70.68
81961;BME280;71462;50.650;6.888;2024-02-14T01:05:42;99760.38;;;5.73;68.68
81961;BME280;71462;50.650;6.888;2024-02-14T01:08:10;99764.34;;;5.70;69.33
81961;BME280;71462;50.650;6.888;2024-02-14T01:10:39;99763.91;;;5.78;68.46
81961;BME280;71462;50.650;6.888;2024-02-14T01:13:07;99766.94;;;5.65;69.10
81961;BME280;71462;50.650;6.888;2024-02-14T01:15:35;99762.88;;;5.57;70.43
81961;BME280;71462;50.650;6.888;2024-02-14T01:18:04;99762.94;;;5.89;68.47
81961;BME280;71462;50.650;6.888;2024-02-14T01:20:32;99766.13;;;5.16;71.54
81961;BME280;71462;50.650;6.888;2024-02-14T01:22:59;99758.53;;;5.46;70.05
81961;BME280;71462;50.650;6.888;2024-02-14T01:25:27;99762.50;;;5.44;70.56
81961;BME280;71462;50.650;6.888;2024-02-14T01:27:54;99760.28;;;5.89;69.70
81961;BME280;71462;50.650;6.888;2024-02-14T01:30:22;99754.41;;;5.33;70.79
81961;BME280;71462;50.650;6.888;2024-02-14T01:32:51;99751.38;;;5.74;70.61
81961;BME280;71462;50.650;6.888;2024-02-14T01:35:21;99752.66;;;5.71;70.16
81961;BME280;71462;50.650;6.888;2024-02-14T01:37:49;99759.03;;;5.70;70.44
81961;BME280;71462;50.650;6.888;2024-02-14T01:40:18;99764.19;;;5.33;71.77
81961;BME280;71462;50.650;6.888;2024-02-14T01:42:46;99753.28;;;5.51;71.33
81961;BME280;71462;50.650;6.888;2024-02-14T01:45:14;99764.34;;;5.21;72.70
81961;BME280;71462;50.650;6.888;2024-02-14T01:47:41;99772.50;;;5.90;70.54
81961;BME280;71462;50.650;6.888;2024-02-14T01:50:09;99770.03;;;5.57;71.64
81961;BME280;71462;50.650;6.888;2024-02-14T01:52:39;99772.88;;;6.04;70.64
81961;BME280;71462;50.650;6.888;2024-02-14T01:55:12;99766.81;;;5.77;70.85
81961;BME280;71462;50.650;6.888;2024-02-14T01:57:39;99764.66;;;5.25;72.88
81961;BME280;71462;50.650;6.888;2024-02-14T02:00:07;99764.44;;;5.31;72.90
81961;BME280;71462;50.650;6.888;2024-02-14T02:02:35;99765.75;;;5.29;73.80
81961;BME280;71462;50.650;6.888;2024-02-14T02:05:04;99759.25;;;5.42;72.72
81961;BME280;71462;50.650;6.888;2024-02-14T02:07:33;99751.19;;;5.31;73.55
81961;BME280;71462;50.650;6.888;2024-02-14T02:10:02;99759.66;;;6.09;70.12
81961;BME280;71462;50.650;6.888;2024-02-14T02:12:30;99759.38;;;5.52;72.99
81961;BME280;71462;50.650;6.888;2024-02-14T02:14:58;99761.84;;;5.85;71.83
81961;BME280;71462;50.650;6.888;2024-02-14T02:17:26;99759.69;;;5.82;72.49
81961;BME280;71462;50.650;6.888;2024-02-14T02:19:54;99750.19;;;5.86;71.67
81961;BME280;71462;50.650;6.888;2024-02-14T02:22:22;99739.53;;;5.54;73.20
81961;BME280;71462;50.650;6.888;2024-02-14T02:24:51;99742.00;;;5.39;73.86
81961;BME280;71462;50.650;6.888;2024-02-14T02:27:19;99742.44;;;6.12;71.98
81961;BME280;71462;50.650;6.888;2024-02-14T02:29:46;99738.47;;;5.82;72.56
81961;BME280;71462;50.650;6.888;2024-02-14T02:32:14;99737.88;;;5.48;74.49
81961;BME280;71462;50.650;6.888;2024-02-14T02:34:43;99744.94;;;5.96;71.93
81961;BME280;71462;50.650;6.888;2024-02-14T02:37:12;99744.06;;;5.59;74.05
81961;BME280;71462;50.650;6.888;2024-02-14T02:39:39;99748.56;;;5.58;74.39
81961;BME280;71462;50.650;6.888;2024-02-14T02:42:08;99744.88;;;6.18;71.73
81961;BME280;71462;50.650;6.888;2024-02-14T02:44:38;99741.50;;;5.42;74.41
81961;BME280;71462;50.650;6.888;2024-02-14T02:47:06;99737.16;;;6.17;71.77
81961;BME280;71462;50.650;6.888;2024-02-14T02:49:33;99732.22;;;5.98;72.40
81961;BME280;71462;50.650;6.888;2024-02-14T02:52:04;99734.38;;;6.02;72.48
81961;BME280;71462;50.650;6.888;2024-02-14T02:54:31;99755.31;;;6.25;71.19
81961;BME280;71462;50.650;6.888;2024-02-14T02:56:59;99759.81;;;6.24;71.69
81961;BME280;71462;50.650;6.888;2024-02-14T02:59:31;99763.56;;;6.28;71.08
81961;BME280;71462;50.650;6.888;2024-02-14T03:01:59;99766.78;;;6.36;70.91
81961;BME280;71462;50.650;6.888;2024-02-14T03:04:26;99771.00;;;6.32;71.60
81961;BME280;71462;50.650;6.888;2024-02-14T03:07:13;99776.34;;;6.37;70.61
81961;BME280;71462;50.650;6.888;2024-02-14T03:09:41;99762.88;;;6.11;71.79
81961;BME280;71462;50.650;6.888;2024-02-14T03:12:09;99767.13;;;6.44;70.64
81961;BME280;71462;50.650;6.888;2024-02-14T03:14:39;99761.50;;;6.78;69.39
81961;BME280;71462;50.650;6.888;2024-02-14T03:17:07;99765.88;;;7.04;67.63
81961;BME280;71462;50.650;6.888;2024-02-14T03:19:36;99783.34;;;6.48;70.70
81961;BME280;71462;50.650;6.888;2024-02-14T03:22:05;99788.53;;;6.70;70.42
81961;BME280;71462;50.650;6.888;2024-02-14T03:24:35;99781.91;;;6.72;69.67
81961;BME280;71462;50.650;6.888;2024-02-14T03:27:04;99790.56;;;6.52;70.62
81961;BME280;71462;50.650;6.888;2024-02-14T03:29:32;99795.88;;;5.93;72.90
81961;BME280;71462;50.650;6.888;2024-02-14T03:32:03;99800.81;;;6.12;72.58
81961;BME280;71462;50.650;6.888;2024-02-14T03:34:31;99782.59;;;6.20;72.44
81961;BME280;71462;50.650;6.888;2024-02-14T03:37:02;99779.19;;;6.25;72.56
81961;BME280;71462;50.650;6.888;2024-02-14T03:39:30;99776.16;;;6.43;71.53
81961;BME280;71462;50.650;6.888;2024-02-14T03:41:58;99779.69;;;5.95;73.66
81961;BME280;71462;50.650;6.888;2024-02-14T03:44:29;99768.13;;;6.38;71.84
81961;BME280;71462;50.650;6.888;2024-02-14T03:46:57;99759.66;;;5.77;73.83
81961;BME280;71462;50.650;6.888;2024-02-14T03:49:26;99765.13;;;5.97;73.43
81961;BME280;71462;50.650;6.888;2024-02-14T03:51:53;99757.84;;;6.15;73.18
81961;BME280;71462;50.650;6.888;2024-02-14T03:54:21;99763.47;;;5.91;73.53
81961;BME280;71462;50.650;6.888;2024-02-14T03:56:50;99766.44;;;5.95;74.45
81961;BME280;71462;50.650;6.888;2024-02-14T03:59:17;99773.38;;;5.74;75.07
81961;BME280;71462;50.650;6.888;2024-02-14T04:01:51;99774.19;;;6.02;73.92
81961;BME280;71462;50.650;6.888;2024-02-14T04:04:19;99771.34;;;5.81;74.76
81961;BME280;71462;50.650;6.888;2024-02-14T04:06:48;99780.56;;;6.06;74.43
81961;BME280;71462;50.650;6.888;2024-02-14T04:09:16;99775.81;;;6.35;73.41
81961;BME280;71462;50.650;6.888;2024-02-14T04:11:43;99769.72;;;6.39;72.55
81961;BME280;71462;50.650;6.888;2024-02-14T04:14:11;99769.88;;;6.22;72.89
81961;BME280;71462;50.650;6.888;2024-02-14T04:16:39;99784.25;;;5.99;73.57
81961;BME280;71462;50.650;6.888;2024-02-14T04:19:07;99778.44;;;6.72;71.15
81961;BME280;71462;50.650;6.888;2024-02-14T04:21:37;99791.66;;;6.62;71.81
81961;BME280;71462;50.650;6.888;2024-02-14T04:24:06;99781.53;;;6.53;72.13
81961;BME280;71462;50.650;6.888;2024-02-14T04:26:34;99784.66;;;5.86;74.46
81961;BME280;71462;50.650;6.888;2024-02-14T04:29:02;99788.53;;;6.33;73.08
81961;BME280;71462;50.650;6.888;2024-02-14T04:31:29;99796.00;;;6.36;72.10
81961;BME280;71462;50.650;6.888;2024-02-14T04:33:58;99797.31;;;7.17;69.96
81961;BME280;71462;50.650;6.888;2024-02-14T04:36:27;99798.06;;;6.66;70.98
81961;BME280;71462;50.650;6.888;2024-02-14T04:38:57;99806.38;;;7.21;69.50
81961;BME280;71462;50.650;6.888;2024-02-14T04:41:26;99807.38;;;7.10;69.64
81961;BME280;71462;50.650;6.888;2024-02-14T04:43:53;99814.28;;;6.69;71.15
81961;BME280;71462;50.650;6.888;2024-02-14T04:46:21;99812.34;;;7.54;68.45
81961;BME280;71462;50.650;6.888;2024-02-14T04:48:49;99814.13;;;7.33;69.68
81961;BME280;71462;50.650;6.888;2024-02-14T04:51:16;99804.47;;;7.17;70.30
81961;BME280;71462;50.650;6.888;2024-02-14T04:53:44;99812.03;;;6.88;70.24
81961;BME280;71462;50.650;6.888;2024-02-14T04:56:12;99812.25;;;6.81;72.36
81961;BME280;71462;50.650;6.888;2024-02-14T04:58:41;99801.66;;;6.86;71.59
81961;BME280;71462;50.650;6.888;2024-02-14T05:01:08;99804.53;;;6.11;74.72
81961;BME280;71462;50.650;6.888;2024-02-14T05:03:37;99797.63;;;6.74;72.15
81961;BME280;71462;50.650;6.888;2024-02-14T05:06:05;99797.94;;;6.87;71.88
81961;BME280;71462;50.650;6.888;2024-02-14T05:08:33;99793.56;;;6.66;72.95
81961;BME280;71462;50.650;6.888;2024-02-14T05:11:00;99797.13;;;6.82;72.20
81961;BME280;71462;50.650;6.888;2024-02-14T05:13:28;99808.47;;;6.35;74.02
81961;BME280;71462;50.650;6.888;2024-02-14T05:15:57;99816.22;;;6.74;72.25
81961;BME280;71462;50.650;6.888;2024-02-14T05:18:24;99816.53;;;6.82;71.90
81961;BME280;71462;50.650;6.888;2024-02-14T05:20:52;99820.84;;;6.94;71.73
81961;BME280;71462;50.650;6.888;2024-02-14T05:23:20;99814.38;;;7.32;69.80
81961;BME280;71462;50.650;6.888;2024-02-14T05:25:47;99812.84;;;7.46;68.44
81961;BME280;71462;50.650;6.888;2024-02-14T05:28:16;99813.13;;;7.54;67.89
81961;BME280;71462;50.650;6.888;2024-02-14T05:30:45;99819.97;;;7.35;69.15
81961;BME280;71462;50.650;6.888;2024-02-14T05:33:14;99821.63;;;6.52;71.37
81961;BME280;71462;50.650;6.888;2024-02-14T05:35:42;99824.06;;;6.58;72.20
81961;BME280;71462;50.650;6.888;2024-02-14T05:38:10;99824.56;;;6.93;70.58
81961;BME280;71462;50.650;6.888;2024-02-14T05:40:37;99831.13;;;6.43;73.11
81961;BME280;71462;50.650;6.888;2024-02-14T05:43:06;99831.63;;;7.19;69.98
81961;BME280;71462;50.650;6.888;2024-02-14T05:45:34;99833.69;;;7.07;70.10
81961;BME280;71462;50.650;6.888;2024-02-14T05:48:02;99842.91;;;6.57;71.83
81961;BME280;71462;50.650;6.888;2024-02-14T05:50:32;99840.09;;;7.11;69.63
81961;BME280;71462;50.650;6.888;2024-02-14T05:53:00;99844.19;;;6.86;70.74
81961;BME280;71462;50.650;6.888;2024-02-14T05:55:29;99846.81;;;6.44;72.70
81961;BME280;71462;50.650;6.888;2024-02-14T05:57:56;99841.28;;;6.51;72.76
81961;BME280;71462;50.650;6.888;2024-02-14T06:00:25;99854.03;;;6.54;72.80
81961;BME280;71462;50.650;6.888;2024-02-14T06:02:55;99837.25;;;6.85;71.44
81961;BME280;71462;50.650;6.888;2024-02-14T06:05:23;99844.31;;;6.70;71.56
81961;BME280;71462;50.650;6.888;2024-02-14T06:07:52;99835.25;;;6.66;71.64
81961;BME280;71462;50.650;6.888;2024-02-14T06:10:19;99837.50;;;6.79;71.03
81961;BME280;71462;50.650;6.888;2024-02-14T06:12:47;99830.31;;;6.42;73.27
81961;BME280;71462;50.650;6.888;2024-02-14T06:15:15;99833.38;;;7.03;71.02
81961;BME280;71462;50.650;6.888;2024-02-14T06:17:43;99829.34;;;7.48;68.91
81961;BME280;71462;50.650;6.888;2024-02-14T06:20:12;99829.16;;;7.07;70.38
81961;BME280;71462;50.650;6.888;2024-02-14T06:22:39;99824.59;;;7.60;68.52
81961;BME280;71462;50.650;6.888;2024-02-14T06:25:20;99829.91;;;6.60;71.74
81961;BME280;71462;50.650;6.888;2024-02-14T06:27:48;99830.19;;;6.64;72.07
81961;BME280;71462;50.650;6.888;2024-02-14T06:30:15;99835.56;;;6.37;73.18
81961;BME280;71462;50.650;6.888;2024-02-14T06:32:44;99836.56;;;6.04;74.94
81961;BME280;71462;50.650;6.888;2024-02-14T06:35:12;99838.44;;;6.31;74.43
81961;BME280;71462;50.650;6.888;2024-02-14T06:37:42;99840.19;;;6.84;72.09
81961;BME280;71462;50.650;6.888;2024-02-14T06:40:22;99842.84;;;6.47;73.18
81961;BME280;71462;50.650;6.888;2024-02-14T06:42:50;99836.16;;;5.90;76.22
81961;BME280;71462;50.650;6.888;2024-02-14T06:45:18;99841.47;;;6.17;75.42
81961;BME280;71462;50.650;6.888;2024-02-14T06:47:46;99852.44;;;5.99;76.65
81961;BME280;71462;50.650;6.888;2024-02-14T06:50:13;99853.13;;;5.89;76.34
81961;BME280;71462;50.650;6.888;2024-02-14T06:52:41;99857.81;;;6.31;74.86
81961;BME280;71462;50.650;6.888;2024-02-14T06:55:09;99857.16;;;6.46;73.75
81961;BME280;71462;50.650;6.888;2024-02-14T06:57:38;99856.72;;;6.27;74.79
81961;BME280;71462;50.650;6.888;2024-02-14T07:00:07;99860.38;;;6.85;72.21
81961;BME280;71462;50.650;6.888;2024-02-14T07:02:36;99864.84;;;7.16;70.33
81961;BME280;71462;50.650;6.888;2024-02-14T07:05:04;99868.06;;;7.23;70.77
81961;BME280;71462;50.650;6.888;2024-02-14T07:07:33;99863.31;;;6.88;71.71
81961;BME280;71462;50.650;6.888;2024-02-14T07:10:01;99875.78;;;6.51;73.12
81961;BME280;71462;50.650;6.888;2024-02-14T07:12:28;99858.56;;;6.53;73.26
81961;BME280;71462;50.650;6.888;2024-02-14T07:14:58;99864.63;;;7.28;70.73
81961;BME280;71462;50.650;6.888;2024-02-14T07:17:26;99870.84;;;7.44;69.84
81961;BME280;71462;50.650;6.888;2024-02-14T07:19:54;99872.06;;;7.26;69.98
81961;BME280;71462;50.650;6.888;2024-02-14T07:22:22;99873.84;;;7.10;71.06
81961;BME280;71462;50.650;6.888;2024-02-14T07:24:50;99879.06;;;7.42;69.88
81961;BME280;71462;50.650;6.888;2024-02-14T07:27:17;99874.47;;;7.28;69.85
81961;BME280;71462;50.650;6.888;2024-02-14T07:29:45;99872.25;;;7.09;71.30
81961;BME280;71462;50.650;6.888;2024-02-14T07:32:14;99874.94;;;6.77;73.04
81961;BME280;71462;50.650;6.888;2024-02-14T07:34:43;99885.09;;;6.53;73.45
81961;BME280;71462;50.650;6.888;2024-02-14T07:37:10;99883.59;;;7.00;71.59
81961;BME280;71462;50.650;6.888;2024-02-14T07:39:38;99880.84;;;7.32;70.32
81961;BME280;71462;50.650;6.888;2024-02-14T07:42:06;99878.59;;;7.56;69.30
81961;BME280;71462;50.650;6.888;2024-02-14T07:44:34;99889.25;;;7.66;69.14
81961;BME280;71462;50.650;6.888;2024-02-14T07:47:02;99899.56;;;7.05;71.61
81961;BME280;71462;50.650;6.888;2024-02-14T07:49:34;99894.44;;;6.56;74.02
81961;BME280;71462;50.650;6.888;2024-02-14T07:52:03;99895.81;;;7.01;72.03
81961;BME280;71462;50.650;6.888;2024-02-14T07:54:31;99903.75;;;7.38;71.05
81961;BME280;71462;50.650;6.888;2024-02-14T07:56:58;99915.03;;;7.08;72.11
81961;BME280;71462;50.650;6.888;2024-02-14T07:59:26;99913.78;;;7.20;71.40
81961;BME280;71462;50.650;6.888;2024-02-14T08:01:57;99919.22;;;7.41;71.23
81961;BME280;71462;50.650;6.888;2024-02-14T08:04:25;99915.44;;;7.37;70.96
81961;BME280;71462;50.650;6.888;2024-02-14T08:06:54;99926.19;;;7.52;70.45
81961;BME280;71462;50.650;6.888;2024-02-14T08:09:22;99922.72;;;7.51;70.33
81961;BME280;71462;50.650;6.888;2024-02-14T08:11:49;99919.00;;;7.47;70.68
81961;BME280;71462;50.650;6.888;2024-02-14T08:14:19;99916.25;;;6.95;72.99
81961;BME280;71462;50.650;6.888;2024-02-14T08:16:47;99911.47;;;6.97;73.28
81961;BME280;71462;50.650;6.888;2024-02-14T08:19:14;99910.25;;;7.57;71.26
81961;BME280;71462;50.650;6.888;2024-02-14T08:21:42;99913.53;;;7.74;70.17
81961;BME280;71462;50.650;6.888;2024-02-14T08:24:11;99915.75;;;6.98;73.58
81961;BME280;71462;50.650;6.888;2024-02-14T08:26:39;99914.50;;;7.53;71.64
81961;BME280;71462;50.650;6.888;2024-02-14T08:29:07;99911.94;;;7.73;70.57
81961;BME280;71462;50.650;6.888;2024-02-14T08:31:36;99917.53;;;7.30;72.59
81961;BME280;71462;50.650;6.888;2024-02-14T08:34:04;99929.88;;;7.41;72.58
81961;BME280;71462;50.650;6.888;2024-02-14T08:36:32;99930.19;;;7.54;71.78
81961;BME280;71462;50.650;6.888;2024-02-14T08:39:05;99924.34;;;8.25;68.49
81961;BME280;71462;50.650;6.888;2024-02-14T08:41:34;99940.06;;;8.17;68.77
81961;BME280;71462;50.650;6.888;2024-02-14T08:44:02;99935.25;;;8.08;70.02
81961;BME280;71462;50.650;6.888;2024-02-14T08:46:31;99923.63;;;8.81;66.59
81961;BME280;71462;50.650;6.888;2024-02-14T08:49:00;99935.47;;;8.02;69.35
81961;BME280;71462;50.650;6.888;2024-02-14T08:51:29;99940.28;;;8.05;69.46
81961;BME280;71462;50.650;6.888;2024-02-14T08:53:56;99932.94;;;8.37;68.05
81961;BME280;71462;50.650;6.888;2024-02-14T08:56:26;99937.22;;;8.79;66.93
81961;BME280;71462;50.650;6.888;2024-02-14T08:58:55;99932.69;;;8.80;66.55
81961;BME280;71462;50.650;6.888;2024-02-14T09:01:23;99937.19;;;9.30;65.08
81961;BME280;71462;50.650;6.888;2024-02-14T09:03:52;99940.91;;;8.42;67.49
81961;BME280;71462;50.650;6.888;2024-02-14T09:06:21;99948.38;;;8.40;67.39
81961;BME280;71462;50.650;6.888;2024-02-14T09:08:49;99943.50;;;8.07;69.44
81961;BME280;71462;50.650;6.888;2024-02-14T09:11:17;99942.28;;;8.96;66.37
81961;BME280;71462;50.650;6.888;2024-02-14T09:13:45;99940.13;;;8.62;67.14
81961;BME280;71462;50.650;6.888;2024-02-14T09:16:16;99943.09;;;8.71;66.19
81961;BME280;71462;50.650;6.888;2024-02-14T09:18:45;99944.97;;;9.21;65.02
81961;BME280;71462;50.650;6.888;2024-02-14T09:21:13;99948.13;;;8.98;65.75
81961;BME280;71462;50.650;6.888;2024-02-14T09:23:44;99952.69;;;9.02;65.29
81961;BME280;71462;50.650;6.888;2024-02-14T09:26:12;99946.25;;;8.53;67.50
81961;BME280;71462;50.650;6.888;2024-02-14T09:28:40;99950.81;;;8.98;65.82
81961;BME280;71462;50.650;6.888;2024-02-14T09:31:07;99954.28;;;9.03;65.67
81961;BME280;71462;50.650;6.888;2024-02-14T09:33:38;99947.78;;;9.65;63.03
81961;BME280;71462;50.650;6.888;2024-02-14T09:36:07;99955.53;;;9.72;63.63
81961;BME280;71462;50.650;6.888;2024-02-14T09:38:35;99952.16;;;9.21;64.18
81961;BME280;71462;50.650;6.888;2024-02-14T09:41:09;99958.03;;;9.02;65.59
81961;BME280;71462;50.650;6.888;2024-02-14T09:43:40;99952.44;;;9.04;65.50
81961;BME280;71462;50.650;6.888;2024-02-14T09:46:12;99954.38;;;9.88;62.44
81961;BME280;71462;50.650;6.888;2024-02-14T09:48:43;99957.75;;;9.09;64.73
81961;BME280;71462;50.650;6.888;2024-02-14T09:51:12;99958.00;;;8.97;65.04
81961;BME280;71462;50.650;6.888;2024-02-14T09:53:40;99962.25;;;8.58;67.26
81961;BME280;71462;50.650;6.888;2024-02-14T09:56:09;99963.34;;;8.87;66.21
81961;BME280;71462;50.650;6.888;2024-02-14T09:58:37;99975.38;;;9.35;64.40
81961;BME280;71462;50.650;6.888;2024-02-14T10:01:05;99989.16;;;8.66;66.74
81961;BME280;71462;50.650;6.888;2024-02-14T10:03:33;99976.16;;;9.11;65.64
81961;BME280;71462;50.650;6.888;2024-02-14T10:06:03;99976.72;;;9.18;65.79
81961;BME280;71462;50.650;6.888;2024-02-14T10:08:32;99980.69;;;9.35;64.75
81961;BME280;71462;50.650;6.888;2024-02-14T10:10:59;99974.19;;;9.82;63.09
81961;BME280;71462;50.650;6.888;2024-02-14T10:13:30;99973.31;;;10.02;61.98
81961;BME280;71462;50.650;6.888;2024-02-14T10:15:58;99987.28;;;9.74;62.85
81961;BME280;71462;50.650;6.888;2024-02-14T10:18:25;99983.63;;;9.24;64.17
81961;BME280;71462;50.650;6.888;2024-02-14T10:20:55;99982.28;;;9.42;64.28
81961;BME280;71462;50.650;6.888;2024-02-14T10:23:26;99992.25;;;10.06;62.37
81961;BME280;71462;50.650;6.888;2024-02-14T10:25:56;99981.50;;;9.26;64.34
81961;BME280;71462;50.650;6.888;2024-02-14T10:28:24;99991.34;;;8.74;66.37
81961;BME280;71462;50.650;6.888;2024-02-14T10:31:02;99991.59;;;9.69;63.58
81961;BME280;71462;50.650;6.888;2024-02-14T10:33:29;99994.84;;;9.21;64.89
81961;BME280;71462;50.650;6.888;2024-02-14T10:35:58;99988.69;;;9.41;64.64
81961;BME280;71462;50.650;6.888;2024-02-14T10:38:31;99983.56;;;9.75;63.77
81961;BME280;71462;50.650;6.888;2024-02-14T10:41:00;99990.81;;;9.13;65.40
81961;BME280;71462;50.650;6.888;2024-02-14T10:43:28;99985.56;;;10.08;62.53
81961;BME280;71462;50.650;6.888;2024-02-14T10:45:56;99988.41;;;8.76;67.25
81961;BME280;71462;50.650;6.888;2024-02-14T10:48:28;99984.94;;;8.81;67.27
81961;BME280;71462;50.650;6.888;2024-02-14T10:51:02;99979.91;;;9.40;65.94
81961;BME280;71462;50.650;6.888;2024-02-14T10:53:33;99987.41;;;10.13;62.67
81961;BME280;71462;50.650;6.888;2024-02-14T10:56:02;99982.81;;;9.13;66.23
81961;BME280;71462;50.650;6.888;2024-02-14T10:58:30;99979.59;;;9.47;65.41
81961;BME280;71462;50.650;6.888;2024-02-14T11:01:00;99982.25;;;8.60;68.47
81961;BME280;71462;50.650;6.888;2024-02-14T11:03:28;99971.38;;;9.23;66.48
81961;BME280;71462;50.650;6.888;2024-02-14T11:06:01;99969.72;;;9.47;65.54
81961;BME280;71462;50.650;6.888;2024-02-14T11:08:30;99971.38;;;9.23;65.83
81961;BME280;71462;50.650;6.888;2024-02-14T11:11:01;99965.47;;;9.31;65.96
81961;BME280;71462;50.650;6.888;2024-02-14T11:13:29;99957.75;;;9.24;66.07
81961;BME280;71462;50.650;6.888;2024-02-14T11:15:59;99955.63;;;8.86;67.80
81961;BME280;71462;50.650;6.888;2024-02-14T11:18:28;99968.03;;;9.82;64.34
81961;BME280;71462;50.650;6.888;2024-02-14T11:20:57;99964.09;;;9.54;64.92
81961;BME280;71462;50.650;6.888;2024-02-14T11:23:25;99964.16;;;9.23;65.75
81961;BME280;71462;50.650;6.888;2024-02-14T11:26:01;99963.22;;;9.84;63.92
81961;BME280;71462;50.650;6.888;2024-02-14T11:28:29;99969.97;;;10.25;63.33
81961;BME280;71462;50.650;6.888;2024-02-14T11:31:00;99970.59;;;10.12;62.98
81961;BME280;71462;50.650;6.888;2024-02-14T11:33:30;99972.03;;;9.84;64.08
81961;BME280;71462;50.650;6.888;2024-02-14T11:36:00;99964.97;;;10.68;61.00
81961;BME280;71462;50.650;6.888;2024-02-14T11:38:35;99969.16;;;9.70;63.70
81961;BME280;71462;50.650;6.888;2024-02-14T11:41:06;99966.47;;;9.76;64.89
81961;BME280;71462;50.650;6.888;2024-02-14T11:43:35;99963.88;;;9.30;65.45
81961;BME280;71462;50.650;6.888;2024-02-14T11:46:05;99962.03;;;9.20;66.25
81961;BME280;71462;50.650;6.888;2024-02-14T11:48:33;99962.44;;;9.78;64.62
81961;BME280;71462;50.650;6.888;2024-02-14T11:51:04;99966.34;;;10.94;60.87
81961;BME280;71462;50.650;6.888;2024-02-14T11:53:34;99971.03;;;11.13;59.56
81961;BME280;71462;50.650;6.888;2024-02-14T11:56:02;99971.94;;;11.32;59.32
81961;BME280;71462;50.650;6.888;2024-02-14T11:58:31;99970.72;;;11.14;59.50
81961;BME280;71462;50.650;6.888;2024-02-14T12:01:03;99976.75;;;10.08;62.74
81961;BME280;71462;50.650;6.888;2024-02-14T12:03:32;99969.69;;;9.73;64.28
81961;BME280;71462;50.650;6.888;2024-02-14T12:06:01;99973.94;;;9.63;65.58
81961;BME280;71462;50.650;6.888;2024-02-14T12:08:29;99974.56;;;9.04;67.63
81961;BME280;71462;50.650;6.888;2024-02-14T12:10:58;99962.50;;;9.53;66.61
81961;BME280;71462;50.650;6.888;2024-02-14T12:13:25;99958.28;;;9.21;66.94
81961;BME280;71462;50.650;6.888;2024-02-14T12:15:54;99958.03;;;9.07;67.85
81961;BME280;71462;50.650;6.888;2024-02-14T12:18:22;99968.16;;;8.80;68.37
81961;BME280;71462;50.650;6.888;2024-02-14T12:20:49;99965.75;;;8.94;68.32
81961;BME280;71462;50.650;6.888;2024-02-14T12:23:22;99965.44;;;8.60;69.60
81961;BME280;71462;50.650;6.888;2024-02-14T12:25:52;99959.88;;;9.32;67.55
81961;BME280;71462;50.650;6.888;2024-02-14T12:28:20;99961.22;;;9.25;67.80
81961;BME280;71462;50.650;6.888;2024-02-14T12:30:48;99957.16;;;9.58;66.28
81961;BME280;71462;50.650;6.888;2024-02-14T12:33:19;99953.72;;;9.47;67.66
81961;BME280;71462;50.650;6.888;2024-02-14T12:35:49;99956.56;;;9.81;66.28
81961;BME280;71462;50.650;6.888;2024-02-14T12:38:19;99951.03;;;10.22;65.24
81961;BME280;71462;50.650;6.888;2024-02-14T12:40:49;99954.63;;;9.97;65.48
81961;BME280;71462;50.650;6.888;2024-02-14T12:43:18;99953.16;;;10.25;65.01
81961;BME280;71462;50.650;6.888;2024-02-14T12:45:45;99954.22;;;9.69;66.29
81961;BME280;71462;50.650;6.888;2024-02-14T12:48:21;99955.53;;;9.72;67.93
81961;BME280;71462;50.650;6.888;2024-02-14T12:50:50;99951.28;;;9.61;68.44
81961;BME280;71462;50.650;6.888;2024-02-14T12:53:18;99937.97;;;9.46;68.54
81961;BME280;71462;50.650;6.888;2024-02-14T12:55:47;99949.91;;;9.79;67.67
81961;BME280;71462;50.650;6.888;2024-02-14T12:58:15;99946.78;;;9.46;69.24
81961;BME280;71462;50.650;6.888;2024-02-14T13:00:43;99954.09;;;9.95;67.97
81961;BME280;71462;50.650;6.888;2024-02-14T13:03:11;99944.88;;;9.67;70.11
81961;BME280;71462;50.650;6.888;2024-02-14T13:05:43;99936.34;;;10.19;69.05
81961;BME280;71462;50.650;6.888;2024-02-14T13:08:13;99935.34;;;10.10;68.70
81961;BME280;71462;50.650;6.888;2024-02-14T13:10:43;99941.28;;;9.92;69.96
81961;BME280;71462;50.650;6.888;2024-02-14T13:13:11;99936.03;;;9.72;70.06
81961;BME280;71462;50.650;6.888;2024-02-14T13:15:40;99937.03;;;9.91;69.73
81961;BME280;71462;50.650;6.888;2024-02-14T13:18:10;99934.28;;;9.26;72.42